Time;durP1;ratioP1;P1;durP2;ratioP2;P2;SDS_P1;SDS_P2;PMS_P1;PMS_P2;Temp;Humidity;BMP_temperature;BMP_pressure;BME280_temperature;BME280_humidity;BME280_pressure;Samples;Min_cycle;Max_cycle;Signal;HPM_P1;HPM_P2
2023/01/19 00:00:43;;;;;;;18.40;16.60;;;2.70;99.90;;;;;;6136474;23;20487;-74
2023/01/19 00:03:14;;;;;;;18.37;16.37;;;2.70;99.90;;;;;;6136309;23;20411;-75
2023/01/19 00:05:44;;;;;;;18.27;16.00;;;2.70;99.90;;;;;;6136315;23;20391;-74
2023/01/19 00:08:17;;;;;;;20.40;17.27;;;2.70;99.90;;;;;;6124709;23;20430;-75
2023/01/19 00:10:48;;;;;;;18.80;16.80;;;2.70;99.90;;;;;;6126321;23;20393;-74
2023/01/19 00:13:18;;;;;;;19.47;17.47;;;2.70;99.90;;;;;;6136551;23;20383;-75
2023/01/19 00:15:46;;;;;;;18.67;16.77;;;2.70;99.90;;;;;;6136552;23;20402;-74
2023/01/19 00:18:15;;;;;;;19.10;17.13;;;2.70;99.90;;;;;;6124574;23;20459;-74
2023/01/19 00:20:45;;;;;;;18.63;16.67;;;2.70;99.90;;;;;;6126115;23;20412;-74
2023/01/19 00:23:14;;;;;;;20.00;18.10;;;2.70;99.90;;;;;;6124705;23;20403;-74
2023/01/19 00:25:43;;;;;;;18.03;16.30;;;2.70;99.90;;;;;;6136530;23;20395;-74
2023/01/19 00:28:14;;;;;;;17.83;16.13;;;2.70;99.90;;;;;;6128211;23;20481;-74
2023/01/19 00:30:45;;;;;;;19.73;17.73;;;2.70;99.90;;;;;;6126371;23;20411;-74
2023/01/19 00:33:14;;;;;;;18.57;16.70;;;2.70;99.90;;;;;;6126708;23;20410;-75
2023/01/19 00:35:42;;;;;;;19.77;17.97;;;4.90;99.90;;;;;;6126362;23;20452;-74
2023/01/19 00:38:11;;;;;;;18.93;17.03;;;2.70;99.90;;;;;;6126123;23;20520;-75
2023/01/19 00:40:39;;;;;;;17.97;16.27;;;2.70;99.90;;;;;;6128167;23;20406;-75
2023/01/19 00:43:07;;;;;;;20.40;18.40;;;2.70;99.90;;;;;;6137605;23;20405;-74
2023/01/19 00:45:36;;;;;;;19.00;17.13;;;2.70;99.90;;;;;;6126203;23;20430;-75
2023/01/19 00:48:06;;;;;;;19.50;17.53;;;2.80;99.90;;;;;;6127529;23;20436;-74
2023/01/19 00:50:35;;;;;;;20.30;18.40;;;2.80;99.90;;;;;;6126283;23;20494;-75
2023/01/19 00:53:03;;;;;;;19.30;17.40;;;2.80;99.90;;;;;;6137540;23;20429;-75
2023/01/19 00:55:32;;;;;;;19.03;17.23;;;2.80;99.90;;;;;;6126503;23;20426;-73
2023/01/19 00:58:01;;;;;;;19.73;18.03;;;2.80;99.90;;;;;;6137229;23;20435;-74
2023/01/19 01:00:30;;;;;;;19.67;17.40;;;2.80;99.90;;;;;;6127771;23;20408;-74
2023/01/19 01:02:58;;;;;;;20.27;18.40;;;2.80;99.90;;;;;;6137360;23;20892;-75
2023/01/19 01:05:28;;;;;;;21.07;19.00;;;2.80;99.90;;;;;;6126208;23;20456;-74
2023/01/19 01:07:56;;;;;;;21.60;19.57;;;2.80;99.90;;;;;;6125969;23;20774;-74
2023/01/19 01:10:27;;;;;;;21.87;19.87;;;2.80;99.90;;;;;;6137152;23;20411;-74
2023/01/19 01:12:55;;;;;;;20.90;19.00;;;2.80;99.90;;;;;;6126194;23;20420;-74
2023/01/19 01:15:27;;;;;;;21.30;19.10;;;2.90;99.90;;;;;;6127162;23;20413;-74
2023/01/19 01:17:55;;;;;;;21.00;19.00;;;2.80;99.90;;;;;;6137048;23;20436;-75
2023/01/19 01:20:26;;;;;;;20.57;18.47;;;2.90;99.90;;;;;;6125862;23;20422;-74
2023/01/19 01:22:57;;;;;;;22.10;19.80;;;2.90;99.90;;;;;;6137463;23;20381;-74
2023/01/19 01:25:29;;;;;;;22.57;20.57;;;2.90;99.90;;;;;;6125839;23;20409;-75
2023/01/19 01:27:57;;;;;;;22.40;20.20;;;2.90;99.90;;;;;;6125618;23;20811;-74
2023/01/19 01:30:26;;;;;;;22.57;20.57;;;3.00;99.90;;;;;;6125774;23;20499;-75
2023/01/19 01:32:54;;;;;;;22.10;20.10;;;2.90;99.90;;;;;;6137031;23;20460;-75
2023/01/19 01:35:22;;;;;;;23.47;21.20;;;2.90;99.90;;;;;;6136969;23;20401;-75
2023/01/19 01:37:50;;;;;;;24.73;22.37;;;2.90;99.90;;;;;;6136840;23;20534;-75
2023/01/19 01:40:20;;;;;;;22.80;20.70;;;2.90;99.90;;;;;;6136973;23;20896;-75
2023/01/19 01:42:48;;;;;;;23.80;21.57;;;2.90;99.90;;;;;;6125565;23;20906;-74
2023/01/19 01:45:31;;;;;;;23.63;21.53;;;2.90;99.90;;;;;;6136736;23;20416;-76
2023/01/19 01:48:06;;;;;;;23.50;21.30;;;2.90;99.90;;;;;;6137434;23;20942;-75
2023/01/19 01:50:37;;;;;;;24.60;22.20;;;2.90;99.90;;;;;;6136931;23;20384;-75
2023/01/19 01:53:11;;;;;;;23.60;21.43;;;2.90;99.90;;;;;;6127277;23;20404;-75
2023/01/19 01:55:45;;;;;;;24.13;21.63;;;2.90;99.90;;;;;;6137240;23;20380;-75
2023/01/19 01:58:14;;;;;;;23.77;21.60;;;2.90;99.90;;;;;;6125736;23;20456;-74
2023/01/19 02:03:31;;;;;;;23.53;21.33;;;2.90;99.90;;;;;;6137373;23;20852;-74
2023/01/19 02:06:06;;;;;;;24.63;22.27;;;2.90;99.90;;;;;;6137312;23;20721;-75
2023/01/19 02:14:12;;;;;;;24.53;22.23;;;2.90;99.90;;;;;;6136985;23;20473;-75
2023/01/19 02:16:40;;;;;;;24.33;22.00;;;2.90;99.90;;;;;;6136546;23;20792;-75
2023/01/19 02:19:12;;;;;;;23.37;21.40;;;2.90;99.90;;;;;;6125041;23;20443;-75
2023/01/19 02:21:49;;;;;;;23.40;21.33;;;2.90;99.90;;;;;;6125143;23;20444;-75
2023/01/19 02:24:19;;;;;;;24.40;22.13;;;2.90;99.90;;;;;;6137167;23;20382;-75
2023/01/19 02:26:49;;;;;;;25.00;22.70;;;2.90;99.90;;;;;;6125034;23;20444;-75
2023/01/19 02:29:19;;;;;;;25.10;22.83;;;2.90;99.90;;;;;;6125059;23;20425;-75
2023/01/19 02:31:48;;;;;;;24.70;22.30;;;2.80;99.90;;;;;;6137139;23;20418;-75
2023/01/19 02:34:18;;;;;;;25.33;23.13;;;2.90;99.90;;;;;;6137117;23;20904;-75
2023/01/19 02:36:51;;;;;;;25.60;23.30;;;2.90;99.90;;;;;;6126841;23;20434;-75
2023/01/19 02:39:25;;;;;;;25.77;23.47;;;2.90;99.90;;;;;;6136217;23;20431;-74
2023/01/19 02:41:59;;;;;;;25.70;23.20;;;2.90;99.90;;;;;;6125092;23;20495;-75
2023/01/19 02:44:29;;;;;;;24.60;22.30;;;2.80;99.90;;;;;;6135089;23;20411;-73
2023/01/19 02:46:57;;;;;;;24.50;22.17;;;2.80;99.90;;;;;;6124895;23;20440;-74
2023/01/19 02:49:28;;;;;;;23.00;21.00;;;2.80;99.90;;;;;;6136388;23;20400;-75
2023/01/19 02:51:57;;;;;;;26.87;24.47;;;2.80;99.90;;;;;;6125024;23;20416;-75
2023/01/19 02:54:50;;;;;;;24.90;22.57;;;2.90;99.90;;;;;;6136682;23;20412;-74
2023/01/19 02:57:38;;;;;;;24.77;22.57;;;2.90;99.90;;;;;;6125229;23;20444;-74
2023/01/19 03:00:21;;;;;;;29.87;26.67;;;2.90;99.90;;;;;;6124852;23;20445;-74
2023/01/19 03:03:07;;;;;;;28.10;25.50;;;2.80;99.90;;;;;;6126875;23;20456;-73
2023/01/19 03:05:50;;;;;;;36.10;32.80;;;2.90;99.90;;;;;;6124973;23;20412;-75
2023/01/19 03:08:30;;;;;;;35.20;31.87;;;2.80;99.90;;;;;;6136365;23;20409;-75
2023/01/19 03:11:03;;;;;;;37.13;33.57;;;2.90;99.90;;;;;;6136510;23;20388;-74
2023/01/19 03:13:41;;;;;;;36.53;33.13;;;2.90;99.90;;;;;;6137106;23;20378;-75
2023/01/19 03:16:16;;;;;;;37.40;33.90;;;2.90;99.90;;;;;;6136690;23;20455;-75
2023/01/19 03:18:47;;;;;;;38.47;35.03;;;2.90;99.90;;;;;;6125416;23;20756;-75
2023/01/19 03:21:18;;;;;;;41.20;37.20;;;2.90;99.90;;;;;;6136551;23;20384;-75
2023/01/19 03:23:49;;;;;;;39.97;36.20;;;2.90;99.90;;;;;;6124838;23;20460;-75
2023/01/19 03:26:24;;;;;;;37.17;33.50;;;2.90;99.90;;;;;;6136452;23;20417;-75
2023/01/19 03:28:53;;;;;;;31.90;28.87;;;2.90;99.90;;;;;;6125109;23;20448;-75
2023/01/19 03:31:24;;;;;;;30.37;27.60;;;2.90;99.90;;;;;;6137098;23;20455;-75
2023/01/19 03:33:57;;;;;;;30.40;27.63;;;2.90;99.90;;;;;;6136879;23;20382;-75
2023/01/19 03:36:30;;;;;;;25.83;23.67;;;2.90;99.90;;;;;;6124917;23;20437;-75
2023/01/19 03:39:01;;;;;;;27.27;24.83;;;2.90;99.90;;;;;;6124788;23;20441;-75
2023/01/19 03:41:33;;;;;;;26.20;23.87;;;2.90;99.90;;;;;;6136283;23;20392;-75
2023/01/19 03:44:04;;;;;;;25.50;23.10;;;2.90;99.90;;;;;;6136396;23;20386;-75
2023/01/19 03:46:33;;;;;;;25.27;22.97;;;2.90;99.90;;;;;;6135954;23;20768;-75
2023/01/19 03:49:02;;;;;;;25.40;23.10;;;2.90;99.90;;;;;;6136327;23;20393;-75
2023/01/19 03:51:30;;;;;;;24.33;22.23;;;2.90;99.90;;;;;;6135917;23;20412;-75
2023/01/19 03:54:00;;;;;;;24.73;22.53;;;2.90;99.90;;;;;;6126803;23;20422;-75
2023/01/19 03:56:29;;;;;;;24.83;22.57;;;2.90;99.90;;;;;;6126529;23;20460;-75
2023/01/19 03:58:57;;;;;;;26.37;23.93;;;2.90;99.90;;;;;;6136111;23;20443;-75
2023/01/19 04:01:26;;;;;;;25.07;22.77;;;2.90;99.90;;;;;;6125737;23;20924;-75
2023/01/19 04:03:54;;;;;;;26.03;23.77;;;2.90;99.90;;;;;;6138495;23;20880;-75
2023/01/19 04:06:23;;;;;;;23.13;21.13;;;2.90;99.90;;;;;;6137656;23;20421;-75
2023/01/19 04:08:51;;;;;;;24.73;22.57;;;2.90;99.90;;;;;;6126300;23;20480;-75
2023/01/19 04:11:20;;;;;;;24.30;22.30;;;2.90;99.90;;;;;;6126422;23;20413;-75
2023/01/19 04:13:50;;;;;;;24.23;22.13;;;2.90;99.90;;;;;;6126486;23;20463;-75
2023/01/19 04:16:19;;;;;;;23.57;21.57;;;2.90;99.90;;;;;;6138213;23;20470;-75
2023/01/19 04:18:48;;;;;;;25.60;23.33;;;2.90;99.90;;;;;;6137994;23;20403;-75
2023/01/19 04:21:16;;;;;;;25.73;23.40;;;2.90;99.90;;;;;;6127778;23;20408;-75
2023/01/19 04:23:44;;;;;;;25.80;23.50;;;2.90;99.90;;;;;;6137926;23;20419;-75
2023/01/19 04:26:13;;;;;;;25.43;23.23;;;2.90;99.90;;;;;;6126294;23;20490;-75
2023/01/19 04:28:41;;;;;;;24.80;22.77;;;2.90;99.90;;;;;;6138022;23;20433;-75
2023/01/19 04:31:11;;;;;;;25.93;23.60;;;2.90;99.90;;;;;;6137600;23;20404;-75
2023/01/19 04:33:39;;;;;;;24.17;22.10;;;2.90;99.90;;;;;;6137553;23;20416;-75
2023/01/19 04:36:08;;;;;;;25.27;23.03;;;2.90;99.90;;;;;;6126174;23;20971;-75
2023/01/19 04:38:37;;;;;;;25.80;23.60;;;2.90;99.90;;;;;;6126044;23;20423;-75
2023/01/19 04:41:05;;;;;;;25.33;23.13;;;2.90;99.90;;;;;;6126133;23;20439;-75
2023/01/19 04:43:33;;;;;;;26.03;23.73;;;2.90;99.90;;;;;;6127489;23;20413;-75
2023/01/19 04:46:01;;;;;;;26.70;24.20;;;2.90;99.90;;;;;;6127095;23;20426;-75
2023/01/19 04:48:31;;;;;;;29.37;26.67;;;2.80;99.90;;;;;;6139148;23;20734;-76
2023/01/19 04:50:59;;;;;;;28.67;26.03;;;2.90;99.90;;;;;;6137827;23;20452;-75
2023/01/19 04:53:27;;;;;;;28.93;26.43;;;2.80;99.90;;;;;;6138079;23;20411;-75
2023/01/19 04:55:55;;;;;;;29.83;27.17;;;2.80;99.90;;;;;;6137646;23;20401;-75
2023/01/19 04:58:23;;;;;;;30.60;27.80;;;2.80;99.90;;;;;;6137596;23;20396;-75
2023/01/19 05:00:52;;;;;;;30.60;27.80;;;2.90;99.90;;;;;;6137309;23;20433;-75
2023/01/19 05:03:20;;;;;;;31.97;29.00;;;2.80;99.90;;;;;;6126007;23;20426;-75
2023/01/19 05:05:50;;;;;;;28.83;26.33;;;2.80;99.90;;;;;;6137240;23;20405;-75
2023/01/19 05:08:18;;;;;;;30.83;27.97;;;2.80;99.90;;;;;;6137509;23;20408;-75
2023/01/19 05:10:46;;;;;;;32.00;29.10;;;2.80;99.90;;;;;;6137195;23;20400;-75
2023/01/19 05:13:14;;;;;;;32.47;29.47;;;2.80;99.90;;;;;;6125625;23;20424;-75
2023/01/19 05:15:42;;;;;;;31.30;28.20;;;2.80;99.90;;;;;;6137581;23;20407;-75
2023/01/19 05:18:10;;;;;;;31.07;28.20;;;2.80;99.90;;;;;;6125900;23;20444;-75
2023/01/19 05:20:40;;;;;;;30.80;27.93;;;2.80;99.90;;;;;;6125674;23;20440;-75
2023/01/19 05:23:09;;;;;;;32.97;29.63;;;2.80;99.90;;;;;;6125803;23;20897;-75
2023/01/19 05:25:37;;;;;;;32.67;29.57;;;2.70;99.90;;;;;;6137148;23;20897;-75
2023/01/19 05:28:05;;;;;;;32.77;29.77;;;2.80;99.90;;;;;;6125776;23;20490;-75
2023/01/19 05:30:33;;;;;;;34.10;30.93;;;2.80;99.90;;;;;;6125652;23;20924;-76
2023/01/19 05:33:01;;;;;;;34.03;30.73;;;2.80;99.90;;;;;;6125649;23;20910;-75
2023/01/19 05:35:30;;;;;;;33.10;30.00;;;2.80;99.90;;;;;;6137343;23;20404;-75
2023/01/19 05:38:03;;;;;;;34.07;30.67;;;2.80;99.90;;;;;;6136931;23;20444;-75
2023/01/19 05:40:33;;;;;;;34.67;31.17;;;2.80;99.90;;;;;;6137274;23;20443;-75
2023/01/19 05:43:03;;;;;;;35.60;31.87;;;2.80;99.90;;;;;;6137315;23;20433;-75
2023/01/19 05:45:32;;;;;;;32.83;29.63;;;2.80;99.90;;;;;;6125739;23;20438;-75
2023/01/19 05:48:01;;;;;;;33.00;29.70;;;2.80;99.90;;;;;;6125449;23;20535;-75
2023/01/19 05:50:29;;;;;;;31.60;28.40;;;2.90;99.90;;;;;;6137305;23;20522;-75
2023/01/19 05:52:57;;;;;;;32.40;29.30;;;2.90;99.90;;;;;;6127313;23;20730;-75
2023/01/19 05:55:27;;;;;;;33.30;30.03;;;2.90;99.90;;;;;;6127299;23;20412;-75
2023/01/19 05:57:56;;;;;;;31.90;28.80;;;2.90;99.90;;;;;;6136857;23;20424;-75
2023/01/19 06:00:26;;;;;;;31.80;28.70;;;2.90;99.90;;;;;;6125537;23;20530;-75
2023/01/19 06:02:54;;;;;;;32.43;28.70;;;2.90;99.90;;;;;;6136743;23;20401;-75
2023/01/19 06:05:22;;;;;;;31.07;27.90;;;2.90;99.90;;;;;;6136964;23;20411;-75
2023/01/19 06:07:51;;;;;;;29.67;26.73;;;2.80;99.90;;;;;;6136605;23;20417;-76
2023/01/19 06:10:19;;;;;;;30.83;27.93;;;2.90;99.90;;;;;;6137021;23;20441;-76
2023/01/19 06:12:48;;;;;;;30.83;27.80;;;2.90;99.90;;;;;;6127235;23;20419;-76
2023/01/19 06:15:18;;;;;;;29.33;26.40;;;2.90;99.90;;;;;;6125111;23;20440;-76
2023/01/19 06:17:46;;;;;;;29.37;26.57;;;2.90;99.90;;;;;;6125368;23;20465;-76
2023/01/19 06:20:14;;;;;;;29.37;26.70;;;2.90;99.90;;;;;;6125223;23;20463;-76
2023/01/19 06:22:42;;;;;;;28.00;25.27;;;2.90;99.90;;;;;;6137162;23;20436;-76
2023/01/19 06:25:11;;;;;;;30.60;27.60;;;2.90;99.90;;;;;;6125057;23;20459;-76
2023/01/19 06:27:43;;;;;;;22.80;20.47;;;2.90;99.90;;;;;;6126924;23;20433;-76
2023/01/19 06:30:13;;;;;;;28.73;25.80;;;3.00;99.90;;;;;;6136626;23;20800;-76
2023/01/19 06:32:43;;;;;;;29.93;27.03;;;3.00;99.90;;;;;;6136450;23;20397;-76
2023/01/19 06:35:12;;;;;;;28.50;25.80;;;3.20;99.90;;;;;;6124984;23;20425;-76
2023/01/19 06:37:40;;;;;;;29.20;26.40;;;3.00;99.90;;;;;;6136256;23;20429;-76
2023/01/19 06:40:10;;;;;;;27.50;24.87;;;3.00;99.90;;;;;;6136366;23;20434;-76
2023/01/19 06:42:41;;;;;;;28.10;25.40;;;3.00;99.90;;;;;;6136398;23;20405;-75
2023/01/19 06:45:10;;;;;;;27.83;25.23;;;3.00;99.90;;;;;;6136425;23;20416;-76
2023/01/19 06:47:38;;;;;;;27.70;25.20;;;3.00;99.90;;;;;;6136673;23;20512;-76
2023/01/19 06:50:09;;;;;;;27.63;24.93;;;3.00;99.90;;;;;;6126927;23;20418;-75
2023/01/19 06:52:41;;;;;;;27.67;25.27;;;3.00;99.90;;;;;;6125112;23;20410;-76
2023/01/19 06:55:10;;;;;;;29.03;26.17;;;3.00;99.90;;;;;;6136287;23;20796;-76
2023/01/19 06:57:39;;;;;;;29.20;26.40;;;3.00;99.90;;;;;;6125150;23;20443;-75
2023/01/19 07:00:10;;;;;;;28.80;25.90;;;3.00;99.90;;;;;;6136141;23;20409;-75
2023/01/19 07:02:42;;;;;;;28.70;26.00;;;3.00;99.90;;;;;;6136293;23;20385;-76
2023/01/19 07:05:13;;;;;;;27.27;24.87;;;3.00;99.90;;;;;;6124921;23;20413;-76
2023/01/19 07:07:43;;;;;;;28.57;25.90;;;3.00;99.90;;;;;;6125144;23;20443;-76
2023/01/19 07:10:14;;;;;;;27.33;24.80;;;3.00;99.90;;;;;;6136512;23;20383;-75
2023/01/19 07:12:45;;;;;;;29.13;26.43;;;3.00;99.90;;;;;;6127628;23;20485;-76
2023/01/19 07:15:13;;;;;;;27.80;25.33;;;3.00;99.90;;;;;;6125173;23;20419;-76
2023/01/19 07:17:42;;;;;;;27.93;25.33;;;3.00;99.90;;;;;;6124761;23;20493;-76
2023/01/19 07:20:13;;;;;;;30.63;27.73;;;3.00;99.90;;;;;;6126548;23;20417;-76
2023/01/19 07:22:42;;;;;;;30.03;27.17;;;3.00;99.90;;;;;;6136895;23;20915;-76
2023/01/19 07:25:10;;;;;;;29.03;26.40;;;3.00;99.90;;;;;;6125619;23;20436;-76
2023/01/19 07:27:39;;;;;;;31.40;28.43;;;3.00;99.90;;;;;;6136771;23;20432;-76
2023/01/19 07:30:08;;;;;;;30.60;27.73;;;3.00;99.90;;;;;;6136346;23;20405;-75
2023/01/19 07:32:37;;;;;;;30.40;27.20;;;3.00;99.90;;;;;;6136044;23;20404;-76
2023/01/19 07:35:05;;;;;;;31.87;28.83;;;3.00;99.90;;;;;;6126285;23;20417;-76
2023/01/19 07:37:35;;;;;;;30.27;27.37;;;3.00;99.90;;;;;;6126706;23;20433;-76
2023/01/19 07:40:04;;;;;;;31.33;28.40;;;3.00;99.90;;;;;;6138108;23;20414;-75
2023/01/19 07:42:32;;;;;;;29.77;27.07;;;3.00;99.90;;;;;;6138703;23;20463;-76
2023/01/19 07:45:00;;;;;;;32.77;29.63;;;3.00;99.90;;;;;;6138233;23;20401;-76
2023/01/19 07:47:29;;;;;;;30.17;27.27;;;3.10;99.90;;;;;;6127059;23;20472;-76
2023/01/19 07:49:57;;;;;;;30.20;27.20;;;3.00;99.90;;;;;;6138003;23;20899;-76
2023/01/19 07:52:25;;;;;;;30.83;27.90;;;3.00;99.90;;;;;;6126611;23;20431;-77
2023/01/19 07:54:55;;;;;;;30.73;27.93;;;3.00;99.90;;;;;;6127029;23;20419;-76
2023/01/19 07:57:23;;;;;;;30.67;27.80;;;3.00;99.90;;;;;;6137816;23;20433;-76
2023/01/19 07:59:51;;;;;;;31.27;28.30;;;3.00;99.90;;;;;;6128335;23;20419;-75
2023/01/19 08:02:19;;;;;;;30.67;27.70;;;3.00;99.90;;;;;;6137797;23;20519;-76
2023/01/19 08:04:47;;;;;;;30.10;27.30;;;3.00;99.90;;;;;;6126703;23;20439;-76
2023/01/19 08:07:16;;;;;;;29.93;27.00;;;3.00;99.90;;;;;;6126577;23;20445;-76
2023/01/19 08:09:44;;;;;;;31.27;28.27;;;3.00;99.90;;;;;;6137874;23;20393;-75
2023/01/19 08:12:14;;;;;;;29.50;26.70;;;3.00;99.90;;;;;;6138031;23;20393;-75
2023/01/19 08:14:42;;;;;;;29.33;26.60;;;3.00;99.90;;;;;;6126618;23;20444;-75
2023/01/19 08:17:13;;;;;;;31.87;28.67;;;3.00;99.90;;;;;;6137981;23;20493;-74
2023/01/19 08:19:42;;;;;;;31.97;28.87;;;3.10;99.90;;;;;;6126797;23;20441;-75
2023/01/19 08:22:10;;;;;;;32.70;29.30;;;3.10;99.90;;;;;;6144979;23;20924;-75
2023/01/19 08:24:39;;;;;;;33.30;30.20;;;3.10;99.90;;;;;;6143801;23;20472;-75
2023/01/19 08:27:08;;;;;;;31.87;28.90;;;3.10;99.90;;;;;;6141400;23;20422;-75
2023/01/19 08:29:38;;;;;;;32.73;29.60;;;3.20;99.90;;;;;;6138298;23;20766;-75
2023/01/19 08:32:06;;;;;;;32.47;29.30;;;3.20;99.90;;;;;;6137881;23;20728;-75
2023/01/19 08:34:34;;;;;;;33.07;29.83;;;3.20;99.90;;;;;;6126359;23;20420;-75
2023/01/19 08:37:02;;;;;;;32.27;29.20;;;3.20;99.90;;;;;;6127937;23;20791;-75
2023/01/19 08:39:31;;;;;;;31.93;28.83;;;3.20;99.90;;;;;;6126288;23;20825;-75
2023/01/19 08:41:59;;;;;;;34.50;30.90;;;3.20;99.90;;;;;;6138320;23;20503;-75
2023/01/19 08:44:27;;;;;;;34.27;30.80;;;3.30;99.90;;;;;;6126706;23;20980;-75
2023/01/19 08:46:57;;;;;;;32.60;29.23;;;3.30;99.90;;;;;;6137380;23;20940;-74
2023/01/19 08:49:25;;;;;;;32.70;29.60;;;3.30;99.90;;;;;;6137596;23;20440;-75
2023/01/19 08:51:53;;;;;;;32.13;28.93;;;3.30;99.90;;;;;;6126284;23;20499;-74
2023/01/19 08:54:23;;;;;;;32.83;29.00;;;3.30;99.90;;;;;;6137438;23;20401;-75
2023/01/19 08:56:51;;;;;;;32.93;29.33;;;3.30;99.90;;;;;;6126028;23;20444;-75
2023/01/19 08:59:20;;;;;;;33.67;30.13;;;3.40;99.90;;;;;;6137350;23;20716;-75
2023/01/19 09:01:48;;;;;;;32.00;28.80;;;3.40;99.90;;;;;;6137600;23;20462;-75
2023/01/19 09:04:18;;;;;;;31.73;28.70;;;3.40;99.90;;;;;;6137339;23;20429;-75
2023/01/19 09:06:47;;;;;;;32.17;28.70;;;3.40;99.90;;;;;;6137420;23;20761;-75
2023/01/19 09:09:15;;;;;;;29.57;26.53;;;3.40;99.90;;;;;;6126003;23;20409;-75
2023/01/19 09:11:43;;;;;;;33.47;29.93;;;3.40;99.90;;;;;;6125974;23;20428;-75
2023/01/19 09:14:11;;;;;;;31.50;28.27;;;3.40;99.90;;;;;;6137991;23;20408;-75
2023/01/19 09:16:40;;;;;;;30.63;27.30;;;3.50;99.90;;;;;;6125930;23;20441;-75
2023/01/19 09:19:08;;;;;;;37.03;31.53;;;3.50;99.90;;;;;;6137270;23;20413;-74
2023/01/19 09:21:37;;;;;;;33.13;29.63;;;3.50;99.90;;;;;;6125832;23;20528;-75
2023/01/19 09:24:06;;;;;;;32.10;28.70;;;3.50;99.90;;;;;;6125854;23;20925;-75
2023/01/19 09:26:35;;;;;;;33.10;29.70;;;3.50;99.90;;;;;;6125756;23;20868;-75
2023/01/19 09:29:03;;;;;;;32.07;28.67;;;3.50;99.90;;;;;;6136999;23;20398;-75
2023/01/19 09:31:31;;;;;;;31.10;27.90;;;3.50;99.90;;;;;;6136984;23;20405;-75
2023/01/19 09:33:59;;;;;;;30.53;27.50;;;3.60;99.90;;;;;;6137167;23;20397;-75
2023/01/19 09:36:28;;;;;;;32.77;27.27;;;3.50;99.90;;;;;;6137133;23;20444;-74
2023/01/19 09:38:58;;;;;;;32.30;27.70;;;3.60;99.90;;;;;;6137082;23;20912;-75
2023/01/19 09:41:26;;;;;;;30.10;26.80;;;3.60;99.90;;;;;;6125698;23;20512;-75
2023/01/19 09:43:57;;;;;;;31.60;28.27;;;3.60;99.90;;;;;;6137168;23;20897;-74
2023/01/19 09:46:33;;;;;;;30.33;26.37;;;3.60;99.90;;;;;;6127111;23;20520;-75
2023/01/19 09:49:05;;;;;;;33.40;27.50;;;3.60;99.90;;;;;;6125749;23;20413;-75
2023/01/19 09:51:37;;;;;;;31.90;28.50;;;3.60;99.90;;;;;;6125687;23;20413;-75
2023/01/19 09:54:13;;;;;;;32.33;28.13;;;3.60;99.90;;;;;;6137055;23;20418;-75
2023/01/19 09:56:42;;;;;;;30.43;26.90;;;3.60;99.90;;;;;;6127379;23;20445;-75
2023/01/19 09:59:29;;;;;;;32.43;28.77;;;3.60;99.90;;;;;;6126656;23;20417;-75
2023/01/19 10:02:16;;;;;;;32.00;28.70;;;3.70;99.90;;;;;;6125537;23;20429;-75
2023/01/19 10:04:56;;;;;;;32.83;29.43;;;3.70;99.90;;;;;;6137431;23;20381;-74
2023/01/19 10:07:55;;;;;;;30.60;27.30;;;3.70;99.90;;;;;;6125457;23;20437;-75
2023/01/19 10:10:27;;;;;;;31.40;28.00;;;3.70;99.90;;;;;;6125559;23;20492;-74
2023/01/19 10:13:04;;;;;;;34.10;28.47;;;3.70;99.90;;;;;;6125409;23;20903;-75
2023/01/19 10:15:45;;;;;;;31.00;27.67;;;3.70;99.90;;;;;;6137537;23;20761;-74
2023/01/19 10:18:18;;;;;;;29.70;26.70;;;3.70;99.90;;;;;;6137610;23;20445;-75
2023/01/19 10:20:50;;;;;;;27.83;24.90;;;3.70;99.90;;;;;;6125396;23;20420;-74
2023/01/19 10:23:35;;;;;;;29.17;26.03;;;3.70;99.90;;;;;;6137040;23;20425;-74
2023/01/19 10:26:08;;;;;;;30.50;27.40;;;3.80;99.90;;;;;;6127910;23;20399;-75
2023/01/19 10:28:38;;;;;;;29.00;26.00;;;3.80;99.90;;;;;;6137521;23;20386;-75
2023/01/19 10:31:08;;;;;;;28.10;25.30;;;3.90;99.90;;;;;;6126968;23;20416;-73
2023/01/19 10:33:38;;;;;;;28.37;25.37;;;3.90;99.90;;;;;;6136781;23;20400;-74
2023/01/19 10:36:16;;;;;;;27.70;24.83;;;3.90;99.90;;;;;;6136867;23;20440;-75
2023/01/19 10:38:45;;;;;;;25.00;22.33;;;3.90;99.90;;;;;;6125162;23;20461;-73
2023/01/19 10:41:19;;;;;;;25.43;22.93;;;3.90;99.90;;;;;;6137425;23;20413;-74
2023/01/19 10:43:47;;;;;;;22.10;19.87;;;4.00;99.90;;;;;;6125109;23;20429;-73
2023/01/19 10:46:23;;;;;;;23.03;18.90;;;4.00;99.90;;;;;;6136318;23;20429;-75
2023/01/19 10:48:53;;;;;;;21.27;19.27;;;4.00;99.90;;;;;;6136793;23;20420;-73
2023/01/19 10:51:22;;;;;;;21.70;18.20;;;4.00;99.90;;;;;;6125045;23;20420;-75
2023/01/19 10:53:56;;;;;;;17.67;15.87;;;4.10;99.90;;;;;;6136179;23;20401;-74
2023/01/19 10:56:29;;;;;;;18.50;16.63;;;4.10;99.90;;;;;;6126860;23;20541;-75
2023/01/19 10:59:00;;;;;;;16.40;14.70;;;4.10;99.90;;;;;;6126907;23;20461;-75
2023/01/19 11:01:30;;;;;;;17.40;15.60;;;4.10;99.90;;;;;;6126526;23;20397;-75
2023/01/19 11:04:04;;;;;;;16.23;14.53;;;4.20;99.90;;;;;;6137026;23;20488;-75
2023/01/19 11:06:34;;;;;;;13.93;12.07;;;4.20;99.90;;;;;;6136984;23;20469;-75
2023/01/19 11:09:17;;;;;;;15.50;11.33;;;4.20;99.90;;;;;;6126790;23;20413;-75
2023/01/19 11:11:49;;;;;;;14.10;10.50;;;4.30;99.90;;;;;;6126532;23;20425;-75
2023/01/19 11:14:23;;;;;;;13.97;10.23;;;4.30;99.90;;;;;;6126466;23;20476;-75
2023/01/19 11:16:54;;;;;;;11.53;7.97;;;4.30;99.90;;;;;;6136571;23;20801;-75
2023/01/19 11:19:28;;;;;;;9.03;6.80;;;4.40;99.90;;;;;;6127030;23;20484;-75
2023/01/19 11:22:10;;;;;;;8.87;5.90;;;4.40;99.90;;;;;;6136612;23;20378;-75
2023/01/19 11:24:39;;;;;;;8.13;5.60;;;4.40;99.90;;;;;;6124896;23;20437;-75
2023/01/19 11:27:09;;;;;;;11.17;7.03;;;4.40;99.90;;;;;;6124928;23;20443;-75
2023/01/19 11:29:38;;;;;;;8.43;5.20;;;4.50;99.90;;;;;;6137634;23;20432;-74
2023/01/19 11:32:12;;;;;;;9.43;5.73;;;4.50;99.90;;;;;;6136978;23;20401;-75
2023/01/19 11:34:40;;;;;;;8.77;5.13;;;4.60;99.90;;;;;;6127079;23;20393;-75
2023/01/19 11:37:28;;;;;;;8.73;4.23;;;4.60;99.90;;;;;;6136993;23;20520;-75
2023/01/19 11:39:58;;;;;;;12.60;4.47;;;4.70;99.90;;;;;;6125148;23;20421;-75
2023/01/19 11:42:32;;;;;;;13.83;4.80;;;4.70;99.90;;;;;;6125108;23;20413;-75
2023/01/19 11:45:06;;;;;;;16.40;5.13;;;4.80;99.90;;;;;;6132702;23;20547;-75
2023/01/19 11:47:41;;;;;;;10.50;4.47;;;4.80;99.90;;;;;;6137573;23;20469;-75
2023/01/19 11:50:15;;;;;;;8.23;3.33;;;4.90;99.90;;;;;;6125291;23;20482;-74
2023/01/19 11:52:48;;;;;;;7.30;3.93;;;4.90;99.90;;;;;;6125306;23;20408;-75
2023/01/19 11:55:25;;;;;;;10.47;3.73;;;4.90;99.90;;;;;;6136614;23;20784;-74
2023/01/19 11:57:55;;;;;;;9.90;4.40;;;5.00;99.90;;;;;;6136411;23;20421;-74
2023/01/19 12:00:27;;;;;;;9.50;4.10;;;5.00;99.90;;;;;;6125473;23;20443;-75
2023/01/19 12:03:00;;;;;;;8.23;4.30;;;5.00;99.90;;;;;;6136839;23;20386;-75
2023/01/19 12:05:33;;;;;;;7.27;4.07;;;5.10;99.90;;;;;;6126693;23;20428;-75
2023/01/19 12:08:06;;;;;;;8.77;4.70;;;5.10;99.90;;;;;;6136484;23;20807;-75
2023/01/19 12:10:42;;;;;;;7.40;4.90;;;5.10;99.90;;;;;;6124935;23;20402;-74
2023/01/19 12:13:20;;;;;;;8.87;4.57;;;5.10;99.90;;;;;;6124806;23;20785;-74
2023/01/19 12:15:51;;;;;;;8.03;3.93;;;5.10;99.90;;;;;;6136179;23;20381;-74
2023/01/19 12:18:22;;;;;;;8.73;4.17;;;5.20;99.90;;;;;;6124939;23;20889;-74
2023/01/19 12:20:53;;;;;;;9.37;3.90;;;5.20;99.90;;;;;;6137614;23;20382;-74
2023/01/19 12:23:31;;;;;;;11.83;3.47;;;5.20;99.90;;;;;;6138601;23;20452;-74
2023/01/19 12:26:28;;;;;;;8.70;3.40;;;5.20;99.90;;;;;;6128469;23;20444;-74
2023/01/19 12:29:03;;;;;;;11.30;3.60;;;5.20;99.90;;;;;;6113527;23;20459;-74
2023/01/19 12:31:32;;;;;;;14.30;3.80;;;5.30;99.90;;;;;;6126456;23;20511;-74
2023/01/19 12:34:30;;;;;;;11.90;4.03;;;5.30;99.90;;;;;;6126482;23;20405;-74
2023/01/19 12:37:03;;;;;;;10.33;3.30;;;5.30;99.90;;;;;;6128124;23;20433;-74
2023/01/19 12:39:32;;;;;;;11.90;3.20;;;5.40;99.90;;;;;;6138031;23;20397;-74
2023/01/19 12:42:13;;;;;;;8.07;3.03;;;5.40;99.90;;;;;;6126819;23;20425;-74
2023/01/19 12:44:45;;;;;;;9.60;2.77;;;5.40;99.90;;;;;;6127313;23;20441;-74
2023/01/19 12:47:23;;;;;;;10.70;2.90;;;5.50;99.90;;;;;;6126797;23;20447;-76
2023/01/19 12:49:55;;;;;;;11.20;2.97;;;5.50;99.90;;;;;;6137968;23;20382;-74
2023/01/19 12:52:32;;;;;;;11.03;3.73;;;5.60;99.90;;;;;;6126182;23;20764;-75
2023/01/19 12:55:05;;;;;;;12.77;3.20;;;5.60;99.90;;;;;;6138260;23;20421;-75
2023/01/19 12:57:38;;;;;;;13.17;3.07;;;5.60;99.90;;;;;;6127953;23;20426;-75
2023/01/19 13:00:34;;;;;;;8.07;2.47;;;5.60;99.90;;;;;;6137768;23;20389;-75
2023/01/19 13:03:05;;;;;;;8.07;2.93;;;5.70;99.90;;;;;;6138086;23;20393;-75
2023/01/19 13:05:57;;;;;;;9.07;3.10;;;5.80;99.90;;;;;;6137416;23;20506;-75